x

Yucatan Basin - 120 Nm Ese Of Cozumel, Mx (42056) Wave Buoy

10:50 - Tue 21st Apr 2015 All times are CDT. -5 hours from GMT.

  • Sig Wave height 4.6ft
  • Swell Direction
  • Peak Period 6s
  • Average Period 5s
  • Wind
    16mph, 20mph gusts
  • Sea Temp 82°f
  • Luft Temp 82°f
  • Sea Pressure 1013.8mb
  •  Yucatan Basin - 120 Nm Ese Of Cozumel, Mx
  •  Yucatan Basin - 120 Nm Ese Of Cozumel, Mx

More Historic Weather Station data

Upgrade to MSW Pro to gain access to the past 30 days of data for over 8000 Wavebouys and Weather Stations around the globe.

Join Pro

Comparision Forecast

View Surf forecast
   
Di 04/21 10:50 4.5ft 6s 5s 16 20 mph 1013.8mb 82f 82f
9:50 4.5ft 6s 5s 16 18 mph 1013.5mb 82f 82f
8:50 5ft 6s 5s 13 16 mph 1012.7mb 82f 82f
7:50 4.5ft 6s 5s 16 18 mph 1011.7mb 82f 82f
6:50 4.5ft 6s 5s 18 20 mph 1011.1mb 82f 82f
5:50 4.5ft 6s 5s 16 20 mph 1011.1mb 82f 82f
4:50 4.5ft 6s 5s 20 22 mph 1010.5mb 82f 82f
3:50 4.5ft 6s 5s 20 22 mph 1010.9mb 82f 82f
2:50 4.5ft 6s 5s 18 20 mph 1011.6mb 82f 82f
1:50 4.5ft 6s 5s 18 20 mph 1012.3mb 82f 82f
12:50 5ft 6s 5s 18 22 mph 1013.1mb 82f 82f
11:50 5ft 6s 5s 18 20 mph 1013.8mb 82f 82f
10:50 5ft 6s 5s 20 22 mph 1014.3mb 82f 82f
9:50 5ft 6s 5s 20 25 mph 1014.1mb 82f 82f
8:50 5ft 6s 5s 22 25 mph 1013.4mb 82f 82f
7:50 4.5ft 6s 5s 20 22 mph 1013.2mb 82f 82f
6:50 4.5ft 5s 5s 20 25 mph 1012.7mb 82f 82f
5:50 4.5ft 5s 5s 20 25 mph 1011.7mb 82f 82f
4:50 4.5ft 7s 5s 20 22 mph 1011.5mb 82f 81f
3:50 4.5ft 6s 5s 20 25 mph 1011.2mb 82f 81f
2:50 4.5ft 7s 5s 18 22 mph 1011.3mb 82f 81f
1:50 4.5ft 6s 5s 18 20 mph 1011.7mb 82f 81f
12:50 4.5ft 6s 5s 16 20 mph 1012.3mb 82f 82f
Mo 04/20 11:50 4.5ft 6s 5s 16 20 mph 1012.5mb 82f 82f
10:50 4.5ft 6s  -  16 20 mph 1012.3mb 82f 82f
9:50 5ft 7s 5s 16 18 mph 1012.1mb 82f 82f
8:50 5ft 7s 5s 16 18 mph 1011.8mb 82f 82f
7:50 5ft 7s 5s 16 18 mph 1011.6mb 82f 82f
6:50 5ft 6s 5s 16 18 mph 1010.8mb 82f 82f
5:50 5.5ft 7s 5s 16 18 mph 1010.4mb 82f 82f
4:50 5.5ft 7s 5s 16 18 mph 1009.7mb 82f 82f
3:50 5ft 7s 5s 18 20 mph 1009.9mb 82f 82f
2:50 5ft 6s 5s 20 25 mph 1009.9mb 82f 82f
1:50 5.5ft 7s 5s 22 25 mph 1010.4mb 82f 82f
12:50 5.5ft 6s 5s 20 25 mph 1011mb 82f 82f
11:50 5.5ft 6s 5s 20 22 mph 1012.2mb 82f 82f
10:50 5ft 6s 5s 22 27 mph 1011.9mb 82f 82f
9:50 5.5ft 7s 5s 22 25 mph 1011.9mb 82f 82f
8:50 5ft 6s 5s 20 25 mph 1011.8mb 82f 82f
7:50 5ft 6s 5s 22 27 mph 1011.1mb 82f 81f
6:50 4.5ft 6s 5s 22 27 mph 1010.8mb 82f 81f
5:50 4.5ft 6s 5s 20 25 mph 1010.9mb 82f 81f
4:50 4.5ft 6s 5s 20 25 mph 1010.5mb 82f 81f
3:50 4.5ft 6s 5s 18 22 mph 1010.1mb 82f 81f
2:50 4.5ft 6s 5s 20 22 mph 1010.6mb 82f 81f
1:50 4ft 6s 5s 18 20 mph 1011.3mb 82f 81f
12:50 4.5ft 6s 5s 20 25 mph 1011.6mb 82f 81f
So 04/19 11:50 4.5ft 6s 5s 18 20 mph 1012mb 82f 81f
10:50 4.5ft 6s 5s 18 22 mph 1012.2mb 82f 81f
9:50 4.5ft 6s 5s 18 22 mph 1012.2mb 82f 81f
8:50 4.5ft 7s 5s 18 20 mph 1011.7mb 82f 82f
7:50 4.5ft 6s 5s 16 18 mph 1011.3mb 82f 81f
6:50 4.5ft 6s 5s 13 16 mph 1011mb 82f 82f
5:50 5ft 6s 5s 16 18 mph 1010.8mb 82f 82f
4:50 5ft 6s 5s 16 20 mph 1010.6mb 82f 82f
3:50 5ft 6s 5s 18 20 mph 1010.7mb 82f 82f
2:50 5ft 7s 5s 16 20 mph 1011.2mb 82f 82f
1:50 5ft 6s 5s 18 20 mph 1012mb 82f 82f
12:50 5.5ft 6s 5s 20 25 mph 1012.6mb 82f 82f
11:50 5ft 6s 5s 22 25 mph 1013.1mb 82f 82f
10:50 5ft 6s 5s 22 25 mph 1013.3mb 82f 82f
9:50 5ft 6s 5s 22 27 mph 1013.2mb 82f 81f
8:50 4.5ft 6s 5s 22 27 mph 1012.7mb 82f 81f
7:50 5ft 6s 4s 22 27 mph 1012.2mb 82f 81f
6:50 4.5ft 6s 4s 20 25 mph 1012.1mb 82f 81f
5:50 4.5ft 5s 4s 20 25 mph 1011.9mb 82f 81f
4:50 4.5ft 6s 5s 18 22 mph 1011.6mb 82f 81f
3:50 4ft 5s 4s 18 22 mph 1010.9mb 82f 81f
2:50 4.5ft 5s 4s 18 22 mph 1011.2mb 82f 80f
1:50 3.5ft 5s 4s 20 22 mph 1011.4mb 82f 81f
12:50 4ft 5s 4s 20 22 mph 1012.2mb 82f 81f
Sa 04/18 11:50 3.5ft 6s 4s 20 22 mph 1012.9mb 82f 81f
10:50 3.5ft 5s 4s 18 20 mph 1013.7mb 82f 81f
9:50 3.5ft 6s 4s 16 20 mph 1013.9mb 82f 81f
8:50 3.5ft 6s 4s 16 20 mph 1013.2mb 82f 81f
7:50 3.5ft 6s 4s 16 20 mph 1012.4mb 82f 81f
6:50 3.5ft 5s 4s 16 20 mph 1012mb 82f 81f
5:50 3.5ft 5s 4s 16 18 mph 1011.6mb 82f 82f
4:50 4ft 5s 5s 16 18 mph 1011.5mb 82f 81f
3:50 3.5ft 6s 4s 16 18 mph 1011.9mb 82f 82f
2:50 3.5ft 5s 4s 16 18 mph 1012.2mb 82f 82f
1:50 4ft 5s 4s 16 18 mph 1012.8mb 82f 82f
12:50 4ft 5s 4s 18 22 mph 1013.3mb 82f 82f
11:50 3.5ft 6s 4s 20 22 mph 1013.7mb 82f 81f
10:50 3.5ft 5s 4s 20 22 mph 1014.1mb 82f 81f
9:50 3.5ft 5s 4s 20 22 mph 1014.1mb 82f 81f
8:50 3.5ft 5s 4s 20 22 mph 1014mb 82f 81f
7:50 3.5ft 8s 4s 18 20 mph 1014mb 82f 81f
6:50 3.5ft 6s 4s 18 20 mph 1013.5mb 82f 81f
5:50 3ft 5s 4s 16 20 mph 1013.2mb 82f 81f
4:50 3ft 5s 4s 16 18 mph 1012.9mb 82f 81f